sensor_id;sensor_type;location;lat;lon;timestamp;P1;durP1;ratioP1;P2;durP2;ratioP2
48263;SDS011;34086;51.076;13.722;2023-05-27T00:00:58;14.65;;;5.90;;
48263;SDS011;34086;51.076;13.722;2023-05-27T00:01:59;18.80;;;6.18;;
48263;SDS011;34086;51.076;13.722;2023-05-27T00:02:59;19.83;;;6.38;;
48263;SDS011;34086;51.076;13.722;2023-05-27T00:04:03;15.18;;;6.05;;
48263;SDS011;34086;51.076;13.722;2023-05-27T00:05:03;15.77;;;5.65;;
48263;SDS011;34086;51.076;13.722;2023-05-27T00:06:05;13.50;;;5.88;;
48263;SDS011;34086;51.076;13.722;2023-05-27T00:07:06;16.15;;;5.75;;
48263;SDS011;34086;51.076;13.722;2023-05-27T00:08:06;16.67;;;5.97;;
48263;SDS011;34086;51.076;13.722;2023-05-27T00:09:07;18.17;;;6.25;;
48263;SDS011;34086;51.076;13.722;2023-05-27T00:10:08;14.25;;;6.30;;
48263;SDS011;34086;51.076;13.722;2023-05-27T00:11:08;14.40;;;5.45;;
48263;SDS011;34086;51.076;13.722;2023-05-27T00:12:09;16.17;;;5.70;;
48263;SDS011;34086;51.076;13.722;2023-05-27T00:13:09;14.32;;;5.50;;
48263;SDS011;34086;51.076;13.722;2023-05-27T00:14:10;14.73;;;5.68;;
48263;SDS011;34086;51.076;13.722;2023-05-27T00:15:11;14.70;;;5.70;;
48263;SDS011;34086;51.076;13.722;2023-05-27T00:16:12;15.50;;;5.93;;
48263;SDS011;34086;51.076;13.722;2023-05-27T00:17:13;16.30;;;6.40;;
48263;SDS011;34086;51.076;13.722;2023-05-27T00:18:13;15.70;;;5.95;;
48263;SDS011;34086;51.076;13.722;2023-05-27T00:19:15;15.05;;;5.80;;
48263;SDS011;34086;51.076;13.722;2023-05-27T00:20:17;14.30;;;6.07;;
48263;SDS011;34086;51.076;13.722;2023-05-27T00:21:18;16.80;;;6.38;;
48263;SDS011;34086;51.076;13.722;2023-05-27T00:22:18;15.50;;;6.07;;
48263;SDS011;34086;51.076;13.722;2023-05-27T00:23:19;14.27;;;5.80;;
48263;SDS011;34086;51.076;13.722;2023-05-27T00:24:20;12.63;;;5.78;;
48263;SDS011;34086;51.076;13.722;2023-05-27T00:25:21;13.63;;;5.78;;
48263;SDS011;34086;51.076;13.722;2023-05-27T00:26:23;16.52;;;6.35;;
48263;SDS011;34086;51.076;13.722;2023-05-27T00:27:26;15.60;;;5.57;;
48263;SDS011;34086;51.076;13.722;2023-05-27T00:28:26;15.75;;;5.85;;
48263;SDS011;34086;51.076;13.722;2023-05-27T00:29:29;15.90;;;6.10;;
48263;SDS011;34086;51.076;13.722;2023-05-27T00:30:30;16.83;;;6.70;;
48263;SDS011;34086;51.076;13.722;2023-05-27T00:31:30;17.15;;;6.00;;
48263;SDS011;34086;51.076;13.722;2023-05-27T00:32:31;16.17;;;6.60;;
48263;SDS011;34086;51.076;13.722;2023-05-27T00:33:31;12.35;;;5.68;;
48263;SDS011;34086;51.076;13.722;2023-05-27T00:34:32;14.13;;;6.07;;
48263;SDS011;34086;51.076;13.722;2023-05-27T00:35:35;13.90;;;5.95;;
48263;SDS011;34086;51.076;13.722;2023-05-27T00:36:36;13.45;;;6.20;;
48263;SDS011;34086;51.076;13.722;2023-05-27T00:37:37;15.43;;;6.15;;
48263;SDS011;34086;51.076;13.722;2023-05-27T00:38:37;18.50;;;6.20;;
48263;SDS011;34086;51.076;13.722;2023-05-27T00:39:38;16.67;;;6.22;;
48263;SDS011;34086;51.076;13.722;2023-05-27T00:40:39;11.93;;;5.95;;
48263;SDS011;34086;51.076;13.722;2023-05-27T00:41:41;16.70;;;6.50;;
48263;SDS011;34086;51.076;13.722;2023-05-27T00:42:47;15.00;;;6.07;;
48263;SDS011;34086;51.076;13.722;2023-05-27T00:43:47;16.15;;;6.32;;
48263;SDS011;34086;51.076;13.722;2023-05-27T00:44:48;19.08;;;6.75;;
48263;SDS011;34086;51.076;13.722;2023-05-27T00:45:48;16.02;;;6.43;;
48263;SDS011;34086;51.076;13.722;2023-05-27T00:46:49;16.23;;;6.32;;
48263;SDS011;34086;51.076;13.722;2023-05-27T00:47:50;14.85;;;6.00;;
48263;SDS011;34086;51.076;13.722;2023-05-27T00:48:50;15.50;;;6.25;;
48263;SDS011;34086;51.076;13.722;2023-05-27T00:49:51;16.00;;;6.05;;
48263;SDS011;34086;51.076;13.722;2023-05-27T00:50:53;17.05;;;6.47;;
48263;SDS011;34086;51.076;13.722;2023-05-27T00:51:53;14.10;;;6.20;;
48263;SDS011;34086;51.076;13.722;2023-05-27T00:52:54;16.48;;;6.65;;
48263;SDS011;34086;51.076;13.722;2023-05-27T00:53:58;13.82;;;6.22;;
48263;SDS011;34086;51.076;13.722;2023-05-27T00:54:59;15.60;;;6.28;;
48263;SDS011;34086;51.076;13.722;2023-05-27T00:56:00;14.77;;;6.55;;
48263;SDS011;34086;51.076;13.722;2023-05-27T00:57:02;13.70;;;5.88;;
48263;SDS011;34086;51.076;13.722;2023-05-27T00:58:02;14.55;;;6.30;;
48263;SDS011;34086;51.076;13.722;2023-05-27T00:59:04;15.57;;;6.65;;
48263;SDS011;34086;51.076;13.722;2023-05-27T01:00:06;16.02;;;6.30;;
48263;SDS011;34086;51.076;13.722;2023-05-27T01:01:09;16.92;;;5.97;;
48263;SDS011;34086;51.076;13.722;2023-05-27T01:02:10;15.38;;;6.40;;
48263;SDS011;34086;51.076;13.722;2023-05-27T01:03:12;14.02;;;6.30;;
48263;SDS011;34086;51.076;13.722;2023-05-27T01:04:12;15.60;;;6.30;;
48263;SDS011;34086;51.076;13.722;2023-05-27T01:05:14;19.15;;;6.22;;
48263;SDS011;34086;51.076;13.722;2023-05-27T01:06:25;14.32;;;6.55;;
48263;SDS011;34086;51.076;13.722;2023-05-27T01:07:42;15.20;;;6.20;;
48263;SDS011;34086;51.076;13.722;2023-05-27T01:10:14;14.85;;;6.57;;
48263;SDS011;34086;51.076;13.722;2023-05-27T01:11:24;16.95;;;6.75;;
48263;SDS011;34086;51.076;13.722;2023-05-27T01:12:39;16.95;;;6.68;;
48263;SDS011;34086;51.076;13.722;2023-05-27T01:14:00;15.80;;;5.97;;
48263;SDS011;34086;51.076;13.722;2023-05-27T01:15:07;16.77;;;6.65;;
48263;SDS011;34086;51.076;13.722;2023-05-27T01:16:11;17.30;;;6.93;;
48263;SDS011;34086;51.076;13.722;2023-05-27T01:17:13;14.00;;;6.47;;
48263;SDS011;34086;51.076;13.722;2023-05-27T01:18:15;19.05;;;7.07;;
48263;SDS011;34086;51.076;13.722;2023-05-27T01:19:24;16.80;;;6.78;;
48263;SDS011;34086;51.076;13.722;2023-05-27T01:20:32;15.05;;;6.43;;
48263;SDS011;34086;51.076;13.722;2023-05-27T01:21:33;15.45;;;6.45;;
48263;SDS011;34086;51.076;13.722;2023-05-27T01:22:36;15.23;;;6.70;;
48263;SDS011;34086;51.076;13.722;2023-05-27T01:23:41;15.88;;;6.35;;
48263;SDS011;34086;51.076;13.722;2023-05-27T01:24:42;16.85;;;6.85;;
48263;SDS011;34086;51.076;13.722;2023-05-27T01:25:43;14.45;;;6.93;;
48263;SDS011;34086;51.076;13.722;2023-05-27T01:26:43;15.88;;;6.55;;
48263;SDS011;34086;51.076;13.722;2023-05-27T01:27:44;20.95;;;7.00;;
48263;SDS011;34086;51.076;13.722;2023-05-27T01:28:45;17.13;;;6.90;;
48263;SDS011;34086;51.076;13.722;2023-05-27T01:29:46;13.70;;;6.80;;
48263;SDS011;34086;51.076;13.722;2023-05-27T01:30:46;18.80;;;7.18;;
48263;SDS011;34086;51.076;13.722;2023-05-27T01:33:20;19.35;;;7.25;;
48263;SDS011;34086;51.076;13.722;2023-05-27T01:34:28;15.60;;;7.18;;
48263;SDS011;34086;51.076;13.722;2023-05-27T01:35:45;16.83;;;7.00;;
48263;SDS011;34086;51.076;13.722;2023-05-27T01:36:51;16.95;;;7.22;;
48263;SDS011;34086;51.076;13.722;2023-05-27T01:37:56;16.35;;;7.10;;
48263;SDS011;34086;51.076;13.722;2023-05-27T01:38:58;17.10;;;7.00;;
48263;SDS011;34086;51.076;13.722;2023-05-27T01:40:01;16.38;;;7.18;;
48263;SDS011;34086;51.076;13.722;2023-05-27T01:41:06;14.27;;;6.28;;
48263;SDS011;34086;51.076;13.722;2023-05-27T01:42:08;14.90;;;6.45;;
48263;SDS011;34086;51.076;13.722;2023-05-27T01:43:09;17.55;;;7.00;;
48263;SDS011;34086;51.076;13.722;2023-05-27T01:44:12;17.88;;;6.32;;
48263;SDS011;34086;51.076;13.722;2023-05-27T01:45:17;15.10;;;7.10;;
48263;SDS011;34086;51.076;13.722;2023-05-27T01:46:17;17.25;;;7.50;;
48263;SDS011;34086;51.076;13.722;2023-05-27T01:47:18;14.75;;;6.32;;
48263;SDS011;34086;51.076;13.722;2023-05-27T01:48:19;13.95;;;6.70;;
48263;SDS011;34086;51.076;13.722;2023-05-27T01:49:19;15.63;;;6.40;;
48263;SDS011;34086;51.076;13.722;2023-05-27T01:50:20;13.88;;;6.50;;
48263;SDS011;34086;51.076;13.722;2023-05-27T01:51:22;15.93;;;6.82;;
48263;SDS011;34086;51.076;13.722;2023-05-27T01:52:22;15.27;;;7.03;;
48263;SDS011;34086;51.076;13.722;2023-05-27T01:53:23;17.42;;;6.88;;
48263;SDS011;34086;51.076;13.722;2023-05-27T01:54:24;16.75;;;7.05;;
48263;SDS011;34086;51.076;13.722;2023-05-27T01:55:24;16.20;;;6.63;;
48263;SDS011;34086;51.076;13.722;2023-05-27T01:56:26;18.25;;;7.70;;
48263;SDS011;34086;51.076;13.722;2023-05-27T01:57:29;18.13;;;7.95;;
48263;SDS011;34086;51.076;13.722;2023-05-27T01:58:29;17.10;;;6.95;;
48263;SDS011;34086;51.076;13.722;2023-05-27T01:59:30;16.38;;;6.85;;
48263;SDS011;34086;51.076;13.722;2023-05-27T02:00:31;15.63;;;7.25;;
48263;SDS011;34086;51.076;13.722;2023-05-27T02:01:31;17.58;;;7.57;;
48263;SDS011;34086;51.076;13.722;2023-05-27T02:02:34;18.80;;;7.65;;
48263;SDS011;34086;51.076;13.722;2023-05-27T02:03:35;20.73;;;8.40;;
48263;SDS011;34086;51.076;13.722;2023-05-27T02:04:37;19.17;;;7.57;;
48263;SDS011;34086;51.076;13.722;2023-05-27T02:05:38;16.77;;;7.50;;
48263;SDS011;34086;51.076;13.722;2023-05-27T02:06:38;16.05;;;7.57;;
48263;SDS011;34086;51.076;13.722;2023-05-27T02:07:40;16.98;;;7.57;;
48263;SDS011;34086;51.076;13.722;2023-05-27T02:08:41;16.02;;;7.63;;
48263;SDS011;34086;51.076;13.722;2023-05-27T02:09:41;16.38;;;6.80;;
48263;SDS011;34086;51.076;13.722;2023-05-27T02:10:43;14.20;;;7.22;;
48263;SDS011;34086;51.076;13.722;2023-05-27T02:11:43;16.45;;;7.40;;
48263;SDS011;34086;51.076;13.722;2023-05-27T02:12:44;15.13;;;7.45;;
48263;SDS011;34086;51.076;13.722;2023-05-27T02:13:46;19.52;;;7.70;;
48263;SDS011;34086;51.076;13.722;2023-05-27T02:14:46;16.90;;;7.03;;
48263;SDS011;34086;51.076;13.722;2023-05-27T02:15:48;14.57;;;7.30;;
48263;SDS011;34086;51.076;13.722;2023-05-27T02:16:49;15.98;;;7.20;;
48263;SDS011;34086;51.076;13.722;2023-05-27T02:17:49;15.77;;;6.97;;
48263;SDS011;34086;51.076;13.722;2023-05-27T02:18:55;15.55;;;7.18;;
48263;SDS011;34086;51.076;13.722;2023-05-27T02:19:56;15.05;;;7.15;;
48263;SDS011;34086;51.076;13.722;2023-05-27T02:20:57;13.10;;;7.13;;
48263;SDS011;34086;51.076;13.722;2023-05-27T02:21:57;16.38;;;7.18;;
48263;SDS011;34086;51.076;13.722;2023-05-27T02:22:58;16.33;;;7.70;;
48263;SDS011;34086;51.076;13.722;2023-05-27T02:24:01;16.00;;;7.45;;
48263;SDS011;34086;51.076;13.722;2023-05-27T02:25:02;18.50;;;7.32;;
48263;SDS011;34086;51.076;13.722;2023-05-27T02:26:02;15.52;;;7.07;;
48263;SDS011;34086;51.076;13.722;2023-05-27T02:27:03;15.63;;;7.13;;
48263;SDS011;34086;51.076;13.722;2023-05-27T02:28:04;16.95;;;7.47;;
48263;SDS011;34086;51.076;13.722;2023-05-27T02:29:05;15.23;;;7.10;;
48263;SDS011;34086;51.076;13.722;2023-05-27T02:30:06;15.45;;;7.10;;
48263;SDS011;34086;51.076;13.722;2023-05-27T02:31:07;16.13;;;7.43;;
48263;SDS011;34086;51.076;13.722;2023-05-27T02:32:11;17.85;;;7.18;;
48263;SDS011;34086;51.076;13.722;2023-05-27T02:33:12;17.55;;;7.53;;
48263;SDS011;34086;51.076;13.722;2023-05-27T02:34:12;15.50;;;7.30;;
48263;SDS011;34086;51.076;13.722;2023-05-27T02:35:13;15.93;;;7.10;;
48263;SDS011;34086;51.076;13.722;2023-05-27T02:36:15;15.93;;;7.38;;
48263;SDS011;34086;51.076;13.722;2023-05-27T02:37:16;16.75;;;7.40;;
48263;SDS011;34086;51.076;13.722;2023-05-27T02:38:17;16.08;;;7.38;;
48263;SDS011;34086;51.076;13.722;2023-05-27T02:39:17;17.33;;;7.93;;
48263;SDS011;34086;51.076;13.722;2023-05-27T02:40:25;16.98;;;7.97;;
48263;SDS011;34086;51.076;13.722;2023-05-27T02:41:28;17.57;;;7.57;;
48263;SDS011;34086;51.076;13.722;2023-05-27T02:42:28;17.48;;;7.35;;
48263;SDS011;34086;51.076;13.722;2023-05-27T02:43:29;15.82;;;7.15;;
48263;SDS011;34086;51.076;13.722;2023-05-27T02:44:29;18.27;;;7.65;;
48263;SDS011;34086;51.076;13.722;2023-05-27T02:45:31;19.50;;;8.32;;
48263;SDS011;34086;51.076;13.722;2023-05-27T02:46:31;15.55;;;7.38;;
48263;SDS011;34086;51.076;13.722;2023-05-27T02:47:32;19.92;;;8.13;;
48263;SDS011;34086;51.076;13.722;2023-05-27T02:48:32;17.35;;;8.30;;
48263;SDS011;34086;51.076;13.722;2023-05-27T02:49:33;18.63;;;7.85;;
48263;SDS011;34086;51.076;13.722;2023-05-27T02:50:34;16.77;;;8.00;;
48263;SDS011;34086;51.076;13.722;2023-05-27T02:51:34;19.02;;;7.55;;
48263;SDS011;34086;51.076;13.722;2023-05-27T02:52:35;14.43;;;7.25;;
48263;SDS011;34086;51.076;13.722;2023-05-27T02:53:36;18.30;;;7.68;;
48263;SDS011;34086;51.076;13.722;2023-05-27T02:54:37;17.73;;;7.75;;
48263;SDS011;34086;51.076;13.722;2023-05-27T02:55:37;21.50;;;8.38;;
48263;SDS011;34086;51.076;13.722;2023-05-27T02:56:38;17.75;;;7.57;;
48263;SDS011;34086;51.076;13.722;2023-05-27T02:57:39;17.98;;;8.23;;
48263;SDS011;34086;51.076;13.722;2023-05-27T02:58:39;16.33;;;7.35;;
48263;SDS011;34086;51.076;13.722;2023-05-27T02:59:40;21.60;;;7.57;;
48263;SDS011;34086;51.076;13.722;2023-05-27T03:00:40;18.13;;;7.80;;
48263;SDS011;34086;51.076;13.722;2023-05-27T03:01:42;17.80;;;7.47;;
48263;SDS011;34086;51.076;13.722;2023-05-27T03:02:43;17.60;;;7.40;;
48263;SDS011;34086;51.076;13.722;2023-05-27T03:03:43;20.02;;;8.10;;
48263;SDS011;34086;51.076;13.722;2023-05-27T03:04:44;17.85;;;7.55;;
48263;SDS011;34086;51.076;13.722;2023-05-27T03:05:45;15.27;;;7.53;;
48263;SDS011;34086;51.076;13.722;2023-05-27T03:06:45;16.90;;;7.50;;
48263;SDS011;34086;51.076;13.722;2023-05-27T03:07:47;17.88;;;7.43;;
48263;SDS011;34086;51.076;13.722;2023-05-27T03:08:47;17.73;;;7.82;;
48263;SDS011;34086;51.076;13.722;2023-05-27T03:09:49;16.98;;;7.55;;
48263;SDS011;34086;51.076;13.722;2023-05-27T03:10:49;21.25;;;7.95;;
48263;SDS011;34086;51.076;13.722;2023-05-27T03:11:50;17.50;;;7.75;;
48263;SDS011;34086;51.076;13.722;2023-05-27T03:12:53;20.00;;;7.97;;
48263;SDS011;34086;51.076;13.722;2023-05-27T03:13:57;14.38;;;7.15;;
48263;SDS011;34086;51.076;13.722;2023-05-27T03:14:59;15.60;;;7.40;;
48263;SDS011;34086;51.076;13.722;2023-05-27T03:16:00;20.85;;;7.80;;
48263;SDS011;34086;51.076;13.722;2023-05-27T03:17:02;22.50;;;7.75;;
48263;SDS011;34086;51.076;13.722;2023-05-27T03:18:02;20.30;;;8.00;;
48263;SDS011;34086;51.076;13.722;2023-05-27T03:19:04;17.98;;;8.07;;
48263;SDS011;34086;51.076;13.722;2023-05-27T03:20:05;19.52;;;8.52;;
48263;SDS011;34086;51.076;13.722;2023-05-27T03:21:08;15.45;;;7.50;;
48263;SDS011;34086;51.076;13.722;2023-05-27T03:22:08;14.65;;;7.32;;
48263;SDS011;34086;51.076;13.722;2023-05-27T03:23:09;17.55;;;7.85;;
48263;SDS011;34086;51.076;13.722;2023-05-27T03:24:10;16.48;;;7.28;;
48263;SDS011;34086;51.076;13.722;2023-05-27T03:25:10;18.25;;;7.53;;
48263;SDS011;34086;51.076;13.722;2023-05-27T03:26:12;16.80;;;7.40;;
48263;SDS011;34086;51.076;13.722;2023-05-27T03:27:13;20.08;;;7.35;;
48263;SDS011;34086;51.076;13.722;2023-05-27T03:28:17;15.57;;;7.57;;
48263;SDS011;34086;51.076;13.722;2023-05-27T03:29:17;18.30;;;7.28;;
48263;SDS011;34086;51.076;13.722;2023-05-27T03:30:18;15.45;;;7.82;;
48263;SDS011;34086;51.076;13.722;2023-05-27T03:31:22;16.13;;;7.38;;
48263;SDS011;34086;51.076;13.722;2023-05-27T03:32:35;15.10;;;7.57;;
48263;SDS011;34086;51.076;13.722;2023-05-27T03:33:37;19.77;;;7.43;;
48263;SDS011;34086;51.076;13.722;2023-05-27T03:34:37;18.02;;;7.10;;
48263;SDS011;34086;51.076;13.722;2023-05-27T03:35:38;17.88;;;7.93;;
48263;SDS011;34086;51.076;13.722;2023-05-27T03:36:39;17.50;;;7.70;;
48263;SDS011;34086;51.076;13.722;2023-05-27T03:37:39;18.15;;;7.97;;
48263;SDS011;34086;51.076;13.722;2023-05-27T03:38:42;19.35;;;7.40;;
48263;SDS011;34086;51.076;13.722;2023-05-27T03:39:43;16.48;;;7.60;;
48263;SDS011;34086;51.076;13.722;2023-05-27T03:40:44;17.23;;;7.30;;
48263;SDS011;34086;51.076;13.722;2023-05-27T03:41:44;17.33;;;7.60;;
48263;SDS011;34086;51.076;13.722;2023-05-27T03:42:47;16.30;;;7.60;;
48263;SDS011;34086;51.076;13.722;2023-05-27T03:43:52;18.13;;;7.88;;
48263;SDS011;34086;51.076;13.722;2023-05-27T03:44:54;16.92;;;7.05;;
48263;SDS011;34086;51.076;13.722;2023-05-27T03:45:55;16.20;;;6.95;;
48263;SDS011;34086;51.076;13.722;2023-05-27T03:46:56;18.08;;;7.60;;
48263;SDS011;34086;51.076;13.722;2023-05-27T03:47:56;16.88;;;7.72;;
48263;SDS011;34086;51.076;13.722;2023-05-27T03:48:57;19.33;;;7.70;;
48263;SDS011;34086;51.076;13.722;2023-05-27T03:49:57;18.63;;;8.00;;
48263;SDS011;34086;51.076;13.722;2023-05-27T03:50:58;16.17;;;7.38;;
48263;SDS011;34086;51.076;13.722;2023-05-27T03:51:58;18.60;;;7.80;;
48263;SDS011;34086;51.076;13.722;2023-05-27T03:53:03;14.70;;;6.97;;
48263;SDS011;34086;51.076;13.722;2023-05-27T03:54:04;15.88;;;7.55;;
48263;SDS011;34086;51.076;13.722;2023-05-27T03:55:05;14.35;;;7.40;;
48263;SDS011;34086;51.076;13.722;2023-05-27T03:56:08;16.27;;;7.78;;
48263;SDS011;34086;51.076;13.722;2023-05-27T03:57:08;18.98;;;7.47;;
48263;SDS011;34086;51.076;13.722;2023-05-27T03:58:09;18.92;;;7.32;;
48263;SDS011;34086;51.076;13.722;2023-05-27T03:59:13;17.45;;;7.22;;
48263;SDS011;34086;51.076;13.722;2023-05-27T04:00:14;15.70;;;7.47;;
48263;SDS011;34086;51.076;13.722;2023-05-27T04:01:22;16.83;;;7.10;;
48263;SDS011;34086;51.076;13.722;2023-05-27T04:02:23;16.27;;;7.57;;
48263;SDS011;34086;51.076;13.722;2023-05-27T04:03:25;18.40;;;7.25;;
48263;SDS011;34086;51.076;13.722;2023-05-27T04:04:26;16.40;;;7.78;;
48263;SDS011;34086;51.076;13.722;2023-05-27T04:05:27;22.05;;;8.02;;
48263;SDS011;34086;51.076;13.722;2023-05-27T04:06:27;19.10;;;7.80;;
48263;SDS011;34086;51.076;13.722;2023-05-27T04:07:28;15.73;;;7.57;;
48263;SDS011;34086;51.076;13.722;2023-05-27T04:08:29;17.27;;;7.25;;
48263;SDS011;34086;51.076;13.722;2023-05-27T04:09:29;14.13;;;7.18;;
48263;SDS011;34086;51.076;13.722;2023-05-27T04:10:30;18.20;;;7.30;;
48263;SDS011;34086;51.076;13.722;2023-05-27T04:11:30;17.70;;;7.03;;
48263;SDS011;34086;51.076;13.722;2023-05-27T04:12:31;16.80;;;6.88;;
48263;SDS011;34086;51.076;13.722;2023-05-27T04:13:31;15.20;;;7.00;;
48263;SDS011;34086;51.076;13.722;2023-05-27T04:14:33;15.40;;;6.72;;
48263;SDS011;34086;51.076;13.722;2023-05-27T04:15:33;17.08;;;6.85;;
48263;SDS011;34086;51.076;13.722;2023-05-27T04:16:34;16.67;;;6.95;;
48263;SDS011;34086;51.076;13.722;2023-05-27T04:17:35;18.90;;;6.80;;
48263;SDS011;34086;51.076;13.722;2023-05-27T04:18:36;14.07;;;6.70;;
48263;SDS011;34086;51.076;13.722;2023-05-27T04:19:37;15.48;;;6.60;;
48263;SDS011;34086;51.076;13.722;2023-05-27T04:20:38;15.60;;;6.55;;
48263;SDS011;34086;51.076;13.722;2023-05-27T04:21:41;14.65;;;6.28;;
48263;SDS011;34086;51.076;13.722;2023-05-27T04:22:42;13.18;;;6.30;;
48263;SDS011;34086;51.076;13.722;2023-05-27T04:23:43;13.63;;;5.90;;
48263;SDS011;34086;51.076;13.722;2023-05-27T04:24:44;15.85;;;6.80;;
48263;SDS011;34086;51.076;13.722;2023-05-27T04:25:46;15.80;;;6.07;;
48263;SDS011;34086;51.076;13.722;2023-05-27T04:26:48;14.23;;;6.32;;
48263;SDS011;34086;51.076;13.722;2023-05-27T04:27:51;14.43;;;6.43;;
48263;SDS011;34086;51.076;13.722;2023-05-27T04:28:51;13.05;;;6.22;;
48263;SDS011;34086;51.076;13.722;2023-05-27T04:29:52;13.27;;;6.35;;
48263;SDS011;34086;51.076;13.722;2023-05-27T04:30:53;15.80;;;6.55;;
48263;SDS011;34086;51.076;13.722;2023-05-27T04:32:12;14.40;;;6.20;;
48263;SDS011;34086;51.076;13.722;2023-05-27T04:33:16;13.45;;;6.25;;
48263;SDS011;34086;51.076;13.722;2023-05-27T04:34:17;14.05;;;6.43;;
48263;SDS011;34086;51.076;13.722;2023-05-27T04:35:19;12.57;;;6.28;;
48263;SDS011;34086;51.076;13.722;2023-05-27T04:36:22;13.82;;;6.60;;
48263;SDS011;34086;51.076;13.722;2023-05-27T04:37:46;14.63;;;6.78;;
48263;SDS011;34086;51.076;13.722;2023-05-27T04:38:48;16.20;;;6.55;;
48263;SDS011;34086;51.076;13.722;2023-05-27T04:39:51;14.20;;;6.60;;
48263;SDS011;34086;51.076;13.722;2023-05-27T04:40:52;14.55;;;6.28;;
48263;SDS011;34086;51.076;13.722;2023-05-27T04:42:06;13.98;;;6.35;;
48263;SDS011;34086;51.076;13.722;2023-05-27T04:43:07;14.70;;;6.20;;
48263;SDS011;34086;51.076;13.722;2023-05-27T04:44:07;15.48;;;6.60;;
48263;SDS011;34086;51.076;13.722;2023-05-27T04:45:13;14.07;;;6.47;;
48263;SDS011;34086;51.076;13.722;2023-05-27T04:46:14;13.43;;;6.18;;
48263;SDS011;34086;51.076;13.722;2023-05-27T04:47:16;15.30;;;6.53;;
48263;SDS011;34086;51.076;13.722;2023-05-27T04:48:16;13.98;;;6.43;;
48263;SDS011;34086;51.076;13.722;2023-05-27T04:49:18;14.73;;;6.85;;
48263;SDS011;34086;51.076;13.722;2023-05-27T04:50:19;14.45;;;6.47;;
48263;SDS011;34086;51.076;13.722;2023-05-27T04:51:20;16.08;;;6.50;;
48263;SDS011;34086;51.076;13.722;2023-05-27T04:52:22;13.80;;;6.10;;
48263;SDS011;34086;51.076;13.722;2023-05-27T04:53:23;13.40;;;6.32;;
48263;SDS011;34086;51.076;13.722;2023-05-27T04:54:25;13.75;;;6.25;;
48263;SDS011;34086;51.076;13.722;2023-05-27T04:55:25;14.85;;;6.78;;
48263;SDS011;34086;51.076;13.722;2023-05-27T04:56:26;14.98;;;6.47;;
48263;SDS011;34086;51.076;13.722;2023-05-27T04:57:27;13.93;;;6.22;;
48263;SDS011;34086;51.076;13.722;2023-05-27T04:58:29;14.70;;;6.32;;
48263;SDS011;34086;51.076;13.722;2023-05-27T04:59:29;14.63;;;6.78;;
48263;SDS011;34086;51.076;13.722;2023-05-27T05:00:46;15.80;;;6.95;;
48263;SDS011;34086;51.076;13.722;2023-05-27T05:01:51;15.93;;;6.80;;
48263;SDS011;34086;51.076;13.722;2023-05-27T05:03:30;14.40;;;6.15;;
48263;SDS011;34086;51.076;13.722;2023-05-27T05:04:38;13.70;;;6.00;;
48263;SDS011;34086;51.076;13.722;2023-05-27T05:05:39;14.77;;;6.60;;
48263;SDS011;34086;51.076;13.722;2023-05-27T05:06:40;14.18;;;6.47;;
48263;SDS011;34086;51.076;13.722;2023-05-27T05:07:42;13.52;;;6.50;;
48263;SDS011;34086;51.076;13.722;2023-05-27T05:08:45;13.75;;;6.40;;
48263;SDS011;34086;51.076;13.722;2023-05-27T05:09:47;18.77;;;6.50;;
48263;SDS011;34086;51.076;13.722;2023-05-27T05:10:54;16.15;;;6.53;;
48263;SDS011;34086;51.076;13.722;2023-05-27T05:11:55;14.93;;;7.03;;
48263;SDS011;34086;51.076;13.722;2023-05-27T05:12:55;16.38;;;6.70;;
48263;SDS011;34086;51.076;13.722;2023-05-27T05:13:56;18.58;;;7.00;;
48263;SDS011;34086;51.076;13.722;2023-05-27T05:14:57;14.35;;;6.45;;
48263;SDS011;34086;51.076;13.722;2023-05-27T05:15:58;14.95;;;6.68;;
48263;SDS011;34086;51.076;13.722;2023-05-27T05:16:59;13.52;;;6.03;;
48263;SDS011;34086;51.076;13.722;2023-05-27T05:18:00;15.50;;;6.22;;
48263;SDS011;34086;51.076;13.722;2023-05-27T05:19:01;16.77;;;6.80;;
48263;SDS011;34086;51.076;13.722;2023-05-27T05:20:06;15.50;;;6.40;;
48263;SDS011;34086;51.076;13.722;2023-05-27T05:21:10;15.35;;;6.40;;
48263;SDS011;34086;51.076;13.722;2023-05-27T05:22:14;17.40;;;6.80;;
48263;SDS011;34086;51.076;13.722;2023-05-27T05:23:17;17.02;;;6.75;;
48263;SDS011;34086;51.076;13.722;2023-05-27T05:24:19;15.48;;;6.35;;
48263;SDS011;34086;51.076;13.722;2023-05-27T05:25:20;16.60;;;6.97;;
48263;SDS011;34086;51.076;13.722;2023-05-27T05:26:23;14.32;;;6.75;;
48263;SDS011;34086;51.076;13.722;2023-05-27T05:27:26;14.77;;;6.60;;
48263;SDS011;34086;51.076;13.722;2023-05-27T05:28:27;15.90;;;6.78;;
48263;SDS011;34086;51.076;13.722;2023-05-27T05:29:28;14.80;;;6.45;;
48263;SDS011;34086;51.076;13.722;2023-05-27T05:30:28;17.27;;;6.57;;
48263;SDS011;34086;51.076;13.722;2023-05-27T05:31:29;15.05;;;6.68;;
48263;SDS011;34086;51.076;13.722;2023-05-27T05:32:30;15.93;;;6.72;;
48263;SDS011;34086;51.076;13.722;2023-05-27T05:33:31;17.73;;;7.05;;
48263;SDS011;34086;51.076;13.722;2023-05-27T05:34:32;17.52;;;7.00;;
48263;SDS011;34086;51.076;13.722;2023-05-27T05:35:33;16.60;;;7.03;;
48263;SDS011;34086;51.076;13.722;2023-05-27T05:36:49;16.40;;;6.93;;
48263;SDS011;34086;51.076;13.722;2023-05-27T05:37:49;15.35;;;6.72;;
48263;SDS011;34086;51.076;13.722;2023-05-27T05:38:50;16.33;;;7.10;;
48263;SDS011;34086;51.076;13.722;2023-05-27T05:39:53;18.88;;;7.05;;
48263;SDS011;34086;51.076;13.722;2023-05-27T05:40:56;16.65;;;7.30;;
48263;SDS011;34086;51.076;13.722;2023-05-27T05:41:57;14.50;;;6.72;;
48263;SDS011;34086;51.076;13.722;2023-05-27T05:42:58;16.27;;;6.78;;
48263;SDS011;34086;51.076;13.722;2023-05-27T05:43:58;16.23;;;6.78;;
48263;SDS011;34086;51.076;13.722;2023-05-27T05:45:00;15.35;;;6.80;;
48263;SDS011;34086;51.076;13.722;2023-05-27T05:46:00;16.98;;;6.90;;
48263;SDS011;34086;51.076;13.722;2023-05-27T05:47:03;16.00;;;6.60;;
48263;SDS011;34086;51.076;13.722;2023-05-27T05:48:04;15.52;;;6.88;;
48263;SDS011;34086;51.076;13.722;2023-05-27T05:49:05;17.83;;;6.90;;
48263;SDS011;34086;51.076;13.722;2023-05-27T05:50:10;17.25;;;7.10;;
48263;SDS011;34086;51.076;13.722;2023-05-27T05:51:12;14.85;;;7.10;;
48263;SDS011;34086;51.076;13.722;2023-05-27T05:52:15;17.15;;;7.72;;
48263;SDS011;34086;51.076;13.722;2023-05-27T05:53:16;14.98;;;6.80;;
48263;SDS011;34086;51.076;13.722;2023-05-27T05:54:17;17.58;;;6.93;;
48263;SDS011;34086;51.076;13.722;2023-05-27T05:55:22;14.68;;;7.20;;
48263;SDS011;34086;51.076;13.722;2023-05-27T05:56:23;16.50;;;7.78;;
48263;SDS011;34086;51.076;13.722;2023-05-27T05:57:26;18.88;;;7.30;;
48263;SDS011;34086;51.076;13.722;2023-05-27T05:58:26;17.35;;;6.93;;
48263;SDS011;34086;51.076;13.722;2023-05-27T05:59:27;14.48;;;7.05;;
48263;SDS011;34086;51.076;13.722;2023-05-27T06:00:28;14.48;;;7.15;;
48263;SDS011;34086;51.076;13.722;2023-05-27T06:01:42;13.95;;;6.60;;
48263;SDS011;34086;51.076;13.722;2023-05-27T06:02:42;13.90;;;6.72;;
48263;SDS011;34086;51.076;13.722;2023-05-27T06:03:46;17.42;;;7.20;;
48263;SDS011;34086;51.076;13.722;2023-05-27T06:05:09;18.85;;;6.78;;
48263;SDS011;34086;51.076;13.722;2023-05-27T06:06:10;17.10;;;6.65;;
48263;SDS011;34086;51.076;13.722;2023-05-27T06:07:31;14.45;;;6.30;;